sensor_id;sensor_type;location;lat;lon;timestamp;pressure;altitude;pressure_sealevel;temperature;humidity
76050;BME280;64746;50.234;19.224;2022-10-31T00:01:15;98817.00;;;18.39;58.43
76050;BME280;64746;50.234;19.224;2022-10-31T00:03:42;98816.16;;;18.38;58.03
76050;BME280;64746;50.234;19.224;2022-10-31T00:06:09;98825.44;;;18.37;58.22
76050;BME280;64746;50.234;19.224;2022-10-31T00:08:36;98814.50;;;18.37;58.32
76050;BME280;64746;50.234;19.224;2022-10-31T00:11:03;98822.72;;;18.37;57.78
76050;BME280;64746;50.234;19.224;2022-10-31T00:13:31;98819.97;;;18.37;57.98
76050;BME280;64746;50.234;19.224;2022-10-31T00:15:57;98818.34;;;18.36;57.63
76050;BME280;64746;50.234;19.224;2022-10-31T00:18:24;98817.50;;;18.36;58.07
76050;BME280;64746;50.234;19.224;2022-10-31T00:21:00;98814.50;;;18.37;57.95
76050;BME280;64746;50.234;19.224;2022-10-31T00:23:27;98818.34;;;18.36;57.85
76050;BME280;64746;50.234;19.224;2022-10-31T00:25:54;98817.50;;;18.36;57.99
76050;BME280;64746;50.234;19.224;2022-10-31T00:28:26;98818.34;;;18.36;58.27
76050;BME280;64746;50.234;19.224;2022-10-31T00:30:53;98813.94;;;18.35;58.35
76050;BME280;64746;50.234;19.224;2022-10-31T00:33:20;98816.66;;;18.35;58.26
76050;BME280;64746;50.234;19.224;2022-10-31T00:35:50;98811.19;;;18.35;57.78
76050;BME280;64746;50.234;19.224;2022-10-31T00:38:17;98815.00;;;18.34;58.25
76050;BME280;64746;50.234;19.224;2022-10-31T00:40:44;98813.09;;;18.35;58.00
76050;BME280;64746;50.234;19.224;2022-10-31T00:43:11;98818.81;;;18.33;57.68
76050;BME280;64746;50.234;19.224;2022-10-31T00:45:43;98813.34;;;18.33;58.10
76050;BME280;64746;50.234;19.224;2022-10-31T00:48:10;98815.00;;;18.34;58.11
76050;BME280;64746;50.234;19.224;2022-10-31T00:50:37;98813.34;;;18.33;57.65
76050;BME280;64746;50.234;19.224;2022-10-31T00:53:05;98821.53;;;18.33;57.99
76050;BME280;64746;50.234;19.224;2022-10-31T00:55:32;98816.56;;;18.30;57.90
76050;BME280;64746;50.234;19.224;2022-10-31T00:57:59;98819.06;;;18.32;57.54
76050;BME280;64746;50.234;19.224;2022-10-31T01:00:26;98822.66;;;18.32;58.11
76050;BME280;64746;50.234;19.224;2022-10-31T01:02:53;98817.16;;;18.32;58.00
76050;BME280;64746;50.234;19.224;2022-10-31T01:05:20;98822.66;;;18.32;57.79
76050;BME280;64746;50.234;19.224;2022-10-31T01:07:47;98821.81;;;18.32;58.25
76050;BME280;64746;50.234;19.224;2022-10-31T01:10:14;98826.47;;;18.31;57.81
76050;BME280;64746;50.234;19.224;2022-10-31T01:12:44;98826.47;;;18.31;57.63
76050;BME280;64746;50.234;19.224;2022-10-31T01:15:14;98827.53;;;18.30;57.63
76050;BME280;64746;50.234;19.224;2022-10-31T01:17:41;98819.31;;;18.30;57.60
76050;BME280;64746;50.234;19.224;2022-10-31T01:20:09;98822.06;;;18.30;57.82
76050;BME280;64746;50.234;19.224;2022-10-31T01:22:37;98823.13;;;18.29;57.50
76050;BME280;64746;50.234;19.224;2022-10-31T01:25:04;98819.53;;;18.28;58.04
76050;BME280;64746;50.234;19.224;2022-10-31T01:27:32;98817.66;;;18.29;58.05
76050;BME280;64746;50.234;19.224;2022-10-31T01:29:59;98820.66;;;18.27;57.72
76050;BME280;64746;50.234;19.224;2022-10-31T01:32:26;98826.34;;;18.26;58.05
76050;BME280;64746;50.234;19.224;2022-10-31T01:34:55;98825.53;;;18.25;57.64
76050;BME280;64746;50.234;19.224;2022-10-31T01:37:22;98818.97;;;18.26;58.22
76050;BME280;64746;50.234;19.224;2022-10-31T01:39:49;98819.81;;;18.27;57.57
76050;BME280;64746;50.234;19.224;2022-10-31T01:42:19;98814.56;;;18.25;58.20
76050;BME280;64746;50.234;19.224;2022-10-31T01:44:59;98818.97;;;18.26;57.97
76050;BME280;64746;50.234;19.224;2022-10-31T01:47:47;98817.06;;;18.27;58.18
76050;BME280;64746;50.234;19.224;2022-10-31T01:50:28;98812.66;;;18.26;57.62
76050;BME280;64746;50.234;19.224;2022-10-31T01:52:57;98810.16;;;18.24;57.57
76050;BME280;64746;50.234;19.224;2022-10-31T01:55:35;98815.63;;;18.24;58.02
76050;BME280;64746;50.234;19.224;2022-10-31T01:58:09;98818.66;;;18.23;57.88
76050;BME280;64746;50.234;19.224;2022-10-31T02:00:39;98816.97;;;18.22;57.72
76050;BME280;64746;50.234;19.224;2022-10-31T02:03:09;98809.59;;;18.22;57.83
76050;BME280;64746;50.234;19.224;2022-10-31T02:05:37;98821.63;;;18.21;57.91
76050;BME280;64746;50.234;19.224;2022-10-31T02:08:20;98809.84;;;18.21;57.78
76050;BME280;64746;50.234;19.224;2022-10-31T02:11:10;98820.78;;;18.21;57.82
76050;BME280;64746;50.234;19.224;2022-10-31T02:14:02;98809.84;;;18.21;57.86
76050;BME280;64746;50.234;19.224;2022-10-31T02:16:48;98815.31;;;18.21;57.38
76050;BME280;64746;50.234;19.224;2022-10-31T02:19:52;98814.47;;;18.20;57.41
76050;BME280;64746;50.234;19.224;2022-10-31T02:34:06;98817.47;;;18.19;57.95
76050;BME280;64746;50.234;19.224;2022-10-31T02:36:46;98818.53;;;18.18;57.43
76050;BME280;64746;50.234;19.224;2022-10-31T02:42:14;98834.13;;;18.17;57.75
76050;BME280;64746;50.234;19.224;2022-10-31T02:44:50;98821.50;;;18.16;57.41
76050;BME280;64746;50.234;19.224;2022-10-31T02:47:27;98831.63;;;18.16;57.61
76050;BME280;64746;50.234;19.224;2022-10-31T02:50:02;98831.63;;;18.16;57.44
76050;BME280;64746;50.234;19.224;2022-10-31T02:52:33;98830.78;;;18.15;57.37
76050;BME280;64746;50.234;19.224;2022-10-31T02:58:12;98834.38;;;18.16;57.19
76050;BME280;64746;50.234;19.224;2022-10-31T03:09:14;98842.56;;;18.16;57.23
76050;BME280;64746;50.234;19.224;2022-10-31T03:11:58;98836.53;;;18.14;57.49
76050;BME280;64746;50.234;19.224;2022-10-31T03:17:06;98838.44;;;18.13;57.11
76050;BME280;64746;50.234;19.224;2022-10-31T03:19:40;98837.59;;;18.13;57.35
76050;BME280;64746;50.234;19.224;2022-10-31T03:24:41;98839.50;;;18.12;57.19
76050;BME280;64746;50.234;19.224;2022-10-31T03:27:10;98846.88;;;18.12;57.58
76050;BME280;64746;50.234;19.224;2022-10-31T03:29:40;98838.66;;;18.12;57.55
76050;BME280;64746;50.234;19.224;2022-10-31T03:32:13;98837.00;;;18.11;57.08
76050;BME280;64746;50.234;19.224;2022-10-31T03:34:43;98845.22;;;18.11;57.92
76050;BME280;64746;50.234;19.224;2022-10-31T03:37:14;98835.34;;;18.10;57.34
76050;BME280;64746;50.234;19.224;2022-10-31T03:39:45;98839.72;;;18.11;57.81
76050;BME280;64746;50.234;19.224;2022-10-31T03:42:33;98841.41;;;18.12;57.79
76050;BME280;64746;50.234;19.224;2022-10-31T03:45:25;98842.47;;;18.11;57.47
76050;BME280;64746;50.234;19.224;2022-10-31T03:47:53;98851.78;;;18.10;57.30
76050;BME280;64746;50.234;19.224;2022-10-31T03:50:21;98857.25;;;18.10;57.76
76050;BME280;64746;50.234;19.224;2022-10-31T03:52:58;98854.75;;;18.08;57.89
76050;BME280;64746;50.234;19.224;2022-10-31T03:55:40;98850.09;;;18.09;57.27
76050;BME280;64746;50.234;19.224;2022-10-31T03:58:12;98858.56;;;18.07;57.44
76050;BME280;64746;50.234;19.224;2022-10-31T04:00:46;98859.38;;;18.08;57.75
76050;BME280;64746;50.234;19.224;2022-10-31T04:03:25;98858.56;;;18.07;57.18
76050;BME280;64746;50.234;19.224;2022-10-31T04:05:55;98861.53;;;18.06;57.12
76050;BME280;64746;50.234;19.224;2022-10-31T04:08:27;98864.25;;;18.06;57.01
76050;BME280;64746;50.234;19.224;2022-10-31T04:10:56;98860.72;;;18.05;57.35
76050;BME280;64746;50.234;19.224;2022-10-31T04:13:28;98869.72;;;18.06;57.88
76050;BME280;64746;50.234;19.224;2022-10-31T04:15:56;98871.66;;;18.05;56.95
76050;BME280;64746;50.234;19.224;2022-10-31T04:18:24;98871.66;;;18.05;57.50
76050;BME280;64746;50.234;19.224;2022-10-31T04:21:01;98872.47;;;18.06;57.00
76050;BME280;64746;50.234;19.224;2022-10-31T04:23:28;98864.53;;;18.04;57.53
76050;BME280;64746;50.234;19.224;2022-10-31T04:25:55;98865.34;;;18.05;57.50
76050;BME280;64746;50.234;19.224;2022-10-31T04:28:22;98873.81;;;18.03;57.23
76050;BME280;64746;50.234;19.224;2022-10-31T04:30:50;98868.31;;;18.03;57.36
76050;BME280;64746;50.234;19.224;2022-10-31T04:33:17;98872.97;;;18.03;57.15
76050;BME280;64746;50.234;19.224;2022-10-31T04:35:44;98878.44;;;18.03;57.45
76050;BME280;64746;50.234;19.224;2022-10-31T04:38:12;98874.63;;;18.04;56.99
76050;BME280;64746;50.234;19.224;2022-10-31T04:40:38;98877.59;;;18.02;57.04
76050;BME280;64746;50.234;19.224;2022-10-31T04:43:05;98877.59;;;18.02;57.56
76050;BME280;64746;50.234;19.224;2022-10-31T04:45:32;98868.56;;;18.02;57.23
76050;BME280;64746;50.234;19.224;2022-10-31T04:47:59;98873.19;;;18.01;57.16
76050;BME280;64746;50.234;19.224;2022-10-31T04:50:27;98872.41;;;18.01;57.17
76050;BME280;64746;50.234;19.224;2022-10-31T04:52:54;98868.81;;;18.00;57.42
76050;BME280;64746;50.234;19.224;2022-10-31T04:55:21;98862.50;;;18.00;57.22
76050;BME280;64746;50.234;19.224;2022-10-31T04:57:49;98875.13;;;18.01;57.26
76050;BME280;64746;50.234;19.224;2022-10-31T05:00:19;98873.47;;;18.00;57.13
76050;BME280;64746;50.234;19.224;2022-10-31T05:02:48;98861.44;;;18.01;57.44
76050;BME280;64746;50.234;19.224;2022-10-31T05:05:17;98866.91;;;18.01;57.36
76050;BME280;64746;50.234;19.224;2022-10-31T05:07:46;98873.47;;;18.00;57.18
76050;BME280;64746;50.234;19.224;2022-10-31T05:10:16;98863.59;;;17.99;56.76
76050;BME280;64746;50.234;19.224;2022-10-31T05:12:51;98861.69;;;17.99;56.71
76050;BME280;64746;50.234;19.224;2022-10-31T05:15:20;98870.94;;;17.98;56.97
76050;BME280;64746;50.234;19.224;2022-10-31T05:17:48;98874.53;;;17.99;56.97
76050;BME280;64746;50.234;19.224;2022-10-31T05:20:17;98872.03;;;17.97;57.38
76050;BME280;64746;50.234;19.224;2022-10-31T05:22:46;98873.91;;;17.97;57.02
76050;BME280;64746;50.234;19.224;2022-10-31T05:25:13;98871.19;;;17.97;57.49
76050;BME280;64746;50.234;19.224;2022-10-31T05:27:45;98872.03;;;17.97;57.07
76050;BME280;64746;50.234;19.224;2022-10-31T05:30:14;98881.31;;;17.96;57.70
76050;BME280;64746;50.234;19.224;2022-10-31T05:32:43;98883.22;;;17.96;57.29
76050;BME280;64746;50.234;19.224;2022-10-31T05:35:13;98891.44;;;17.96;56.96
76050;BME280;64746;50.234;19.224;2022-10-31T05:37:40;98881.56;;;17.95;57.28
76050;BME280;64746;50.234;19.224;2022-10-31T05:40:09;98884.28;;;17.95;57.17
76050;BME280;64746;50.234;19.224;2022-10-31T05:42:41;98893.34;;;17.95;57.54
76050;BME280;64746;50.234;19.224;2022-10-31T05:45:13;98897.97;;;17.95;56.96
76050;BME280;64746;50.234;19.224;2022-10-31T05:47:40;98893.56;;;17.94;56.73
76050;BME280;64746;50.234;19.224;2022-10-31T05:50:09;98891.66;;;17.94;57.01
76050;BME280;64746;50.234;19.224;2022-10-31T05:52:36;98900.72;;;17.95;56.76
76050;BME280;64746;50.234;19.224;2022-10-31T05:55:03;98900.94;;;17.93;57.32
76050;BME280;64746;50.234;19.224;2022-10-31T05:57:31;98902.84;;;17.93;56.89
76050;BME280;64746;50.234;19.224;2022-10-31T05:59:59;98906.41;;;17.93;57.26
76050;BME280;64746;50.234;19.224;2022-10-31T06:02:26;98908.31;;;17.93;56.99
76050;BME280;64746;50.234;19.224;2022-10-31T06:04:53;98907.47;;;17.92;56.78
76050;BME280;64746;50.234;19.224;2022-10-31T06:07:20;98901.19;;;17.92;56.76
76050;BME280;64746;50.234;19.224;2022-10-31T06:09:47;98909.41;;;17.92;57.43
76050;BME280;64746;50.234;19.224;2022-10-31T06:12:14;98905.56;;;17.93;56.74
76050;BME280;64746;50.234;19.224;2022-10-31T06:14:41;98917.63;;;17.92;56.86
76050;BME280;64746;50.234;19.224;2022-10-31T06:17:07;98918.69;;;17.91;57.31
76050;BME280;64746;50.234;19.224;2022-10-31T06:19:34;98915.94;;;17.91;56.70
76050;BME280;64746;50.234;19.224;2022-10-31T06:22:01;98920.34;;;17.92;56.83
76050;BME280;64746;50.234;19.224;2022-10-31T06:24:28;98921.41;;;17.91;57.00
76050;BME280;64746;50.234;19.224;2022-10-31T06:26:55;98926.63;;;17.92;56.97
76050;BME280;64746;50.234;19.224;2022-10-31T06:29:22;98924.16;;;17.91;56.61
76050;BME280;64746;50.234;19.224;2022-10-31T06:31:51;98921.41;;;17.91;57.13
76050;BME280;64746;50.234;19.224;2022-10-31T06:34:18;98929.63;;;17.91;56.61
76050;BME280;64746;50.234;19.224;2022-10-31T06:36:46;98924.16;;;17.91;56.67
76050;BME280;64746;50.234;19.224;2022-10-31T06:39:13;98924.16;;;17.91;56.77
76050;BME280;64746;50.234;19.224;2022-10-31T06:41:40;98921.41;;;17.91;56.78
76050;BME280;64746;50.234;19.224;2022-10-31T06:44:08;98923.53;;;17.89;57.40
76050;BME280;64746;50.234;19.224;2022-10-31T06:46:35;98931.75;;;17.89;57.09
76050;BME280;64746;50.234;19.224;2022-10-31T06:49:02;98938.06;;;17.89;57.27
76050;BME280;64746;50.234;19.224;2022-10-31T06:51:28;98931.75;;;17.89;57.34
76050;BME280;64746;50.234;19.224;2022-10-31T06:53:55;98936.16;;;17.90;57.24
76050;BME280;64746;50.234;19.224;2022-10-31T06:56:22;98934.50;;;17.89;57.10
76050;BME280;64746;50.234;19.224;2022-10-31T06:58:49;98938.06;;;17.89;57.05
76050;BME280;64746;50.234;19.224;2022-10-31T07:01:16;98933.44;;;17.90;57.19
76050;BME280;64746;50.234;19.224;2022-10-31T07:03:43;98938.91;;;17.90;57.11
76050;BME280;64746;50.234;19.224;2022-10-31T07:06:10;98944.38;;;17.90;56.87
76050;BME280;64746;50.234;19.224;2022-10-31T07:08:37;98945.44;;;17.89;56.89
76050;BME280;64746;50.234;19.224;2022-10-31T07:11:04;98943.53;;;17.89;57.05
76050;BME280;64746;50.234;19.224;2022-10-31T07:13:31;98954.47;;;17.89;56.60
76050;BME280;64746;50.234;19.224;2022-10-31T07:16:04;98952.56;;;17.90;57.07
76050;BME280;64746;50.234;19.224;2022-10-31T07:18:34;98959.72;;;17.91;56.90
76050;BME280;64746;50.234;19.224;2022-10-31T07:21:00;98954.47;;;17.89;57.26
76050;BME280;64746;50.234;19.224;2022-10-31T07:23:27;98956.16;;;17.90;56.75
76050;BME280;64746;50.234;19.224;2022-10-31T07:25:55;98961.63;;;17.90;57.06
76050;BME280;64746;50.234;19.224;2022-10-31T07:28:23;98955.31;;;17.90;57.25
76050;BME280;64746;50.234;19.224;2022-10-31T07:30:51;98953.41;;;17.90;56.44
76050;BME280;64746;50.234;19.224;2022-10-31T07:33:18;98967.09;;;17.90;56.91
76050;BME280;64746;50.234;19.224;2022-10-31T07:35:45;98959.72;;;17.91;57.04
76050;BME280;64746;50.234;19.224;2022-10-31T07:38:14;98964.13;;;17.92;56.75
76050;BME280;64746;50.234;19.224;2022-10-31T07:40:42;98966.03;;;17.91;56.69
76050;BME280;64746;50.234;19.224;2022-10-31T07:43:12;98969.59;;;17.92;57.22
76050;BME280;64746;50.234;19.224;2022-10-31T07:45:40;98970.41;;;17.92;56.81
76050;BME280;64746;50.234;19.224;2022-10-31T07:48:07;98965.78;;;17.93;57.05
76050;BME280;64746;50.234;19.224;2022-10-31T07:50:34;98968.50;;;17.93;56.56
76050;BME280;64746;50.234;19.224;2022-10-31T07:53:04;98973.13;;;17.92;56.97
76050;BME280;64746;50.234;19.224;2022-10-31T07:55:32;98971.00;;;17.94;56.83
76050;BME280;64746;50.234;19.224;2022-10-31T07:58:01;98965.53;;;17.94;56.74
76050;BME280;64746;50.234;19.224;2022-10-31T08:00:29;98964.69;;;17.94;56.60
76050;BME280;64746;50.234;19.224;2022-10-31T08:02:58;98967.44;;;17.94;56.79
76050;BME280;64746;50.234;19.224;2022-10-31T08:05:26;98966.59;;;17.93;57.26
76050;BME280;64746;50.234;19.224;2022-10-31T08:07:53;98964.69;;;17.94;56.96
76050;BME280;64746;50.234;19.224;2022-10-31T08:10:21;98965.78;;;17.93;56.76
76050;BME280;64746;50.234;19.224;2022-10-31T08:12:58;98961.97;;;17.94;57.12
76050;BME280;64746;50.234;19.224;2022-10-31T08:15:26;98961.97;;;17.94;56.87
76050;BME280;64746;50.234;19.224;2022-10-31T08:17:53;98968.28;;;17.94;57.42
76050;BME280;64746;50.234;19.224;2022-10-31T08:20:21;98967.44;;;17.94;56.92
76050;BME280;64746;50.234;19.224;2022-10-31T08:22:59;98962.81;;;17.94;57.11
76050;BME280;64746;50.234;19.224;2022-10-31T08:25:29;98960.28;;;17.93;57.14
76050;BME280;64746;50.234;19.224;2022-10-31T08:28:03;98969.59;;;17.92;57.54
76050;BME280;64746;50.234;19.224;2022-10-31T08:30:31;98969.94;;;17.95;56.77
76050;BME280;64746;50.234;19.224;2022-10-31T08:35:37;98968.03;;;17.96;57.01
76050;BME280;64746;50.234;19.224;2022-10-31T08:38:04;98972.69;;;17.95;56.48
76050;BME280;64746;50.234;19.224;2022-10-31T08:40:32;98954.38;;;17.96;57.01
76050;BME280;64746;50.234;19.224;2022-10-31T08:43:13;98968.03;;;17.96;56.80
76050;BME280;64746;50.234;19.224;2022-10-31T08:45:41;98973.25;;;17.97;57.42
76050;BME280;64746;50.234;19.224;2022-10-31T08:48:13;98958.75;;;17.97;57.09
76050;BME280;64746;50.234;19.224;2022-10-31T08:50:44;98965.31;;;17.96;56.59
76050;BME280;64746;50.234;19.224;2022-10-31T08:53:17;98961.47;;;17.97;57.17
76050;BME280;64746;50.234;19.224;2022-10-31T08:55:45;98967.78;;;17.97;56.92
76050;BME280;64746;50.234;19.224;2022-10-31T08:58:17;98963.41;;;17.96;57.36
76050;BME280;64746;50.234;19.224;2022-10-31T09:00:46;98966.94;;;17.97;56.94
76050;BME280;64746;50.234;19.224;2022-10-31T09:03:19;98957.69;;;17.98;56.98
76050;BME280;64746;50.234;19.224;2022-10-31T09:05:47;98977.66;;;17.98;56.65
76050;BME280;64746;50.234;19.224;2022-10-31T09:08:17;98970.28;;;17.99;56.87
76050;BME280;64746;50.234;19.224;2022-10-31T09:10:44;98979.56;;;17.98;56.50
76050;BME280;64746;50.234;19.224;2022-10-31T09:13:17;98977.66;;;17.98;57.07
76050;BME280;64746;50.234;19.224;2022-10-31T09:15:46;98975.75;;;17.99;56.63
76050;BME280;64746;50.234;19.224;2022-10-31T09:18:16;98985.88;;;17.98;56.83
76050;BME280;64746;50.234;19.224;2022-10-31T09:20:44;98978.50;;;17.99;57.02
76050;BME280;64746;50.234;19.224;2022-10-31T09:23:19;98975.75;;;17.99;56.68
76050;BME280;64746;50.234;19.224;2022-10-31T09:25:48;98980.16;;;18.00;57.13
76050;BME280;64746;50.234;19.224;2022-10-31T09:28:18;98981.25;;;17.99;57.11
76050;BME280;64746;50.234;19.224;2022-10-31T09:30:47;98976.59;;;17.99;56.85
76050;BME280;64746;50.234;19.224;2022-10-31T09:33:15;98974.69;;;18.00;56.48
76050;BME280;64746;50.234;19.224;2022-10-31T09:35:43;98980.16;;;18.00;56.85
76050;BME280;64746;50.234;19.224;2022-10-31T09:38:14;98973.63;;;18.01;56.70
76050;BME280;64746;50.234;19.224;2022-10-31T09:40:45;98979.09;;;18.01;57.22
76050;BME280;64746;50.234;19.224;2022-10-31T09:43:14;98972.53;;;18.02;56.51
76050;BME280;64746;50.234;19.224;2022-10-31T09:45:51;98974.44;;;18.01;57.26
76050;BME280;64746;50.234;19.224;2022-10-31T09:51:34;98971.47;;;18.03;57.04
76050;BME280;64746;50.234;19.224;2022-10-31T09:54:14;98978.63;;;18.04;56.98
76050;BME280;64746;50.234;19.224;2022-10-31T09:56:45;98967.66;;;18.04;56.75
76050;BME280;64746;50.234;19.224;2022-10-31T09:59:30;98980.28;;;18.05;56.32
76050;BME280;64746;50.234;19.224;2022-10-31T10:02:04;98968.50;;;18.04;56.43
76050;BME280;64746;50.234;19.224;2022-10-31T10:10:53;98965.50;;;18.06;56.90
76050;BME280;64746;50.234;19.224;2022-10-31T10:16:19;98969.34;;;18.05;57.37
76050;BME280;64746;50.234;19.224;2022-10-31T10:30:13;98967.28;;;18.12;57.33
76050;BME280;64746;50.234;19.224;2022-10-31T10:32:46;98961.81;;;18.12;56.95
76050;BME280;64746;50.234;19.224;2022-10-31T10:37:52;98958.03;;;18.13;56.99
76050;BME280;64746;50.234;19.224;2022-10-31T10:40:24;98966.22;;;18.13;57.46
76050;BME280;64746;50.234;19.224;2022-10-31T10:43:22;98959.09;;;18.12;58.62
76050;BME280;64746;50.234;19.224;2022-10-31T10:54:43;98949.66;;;18.19;57.54
76050;BME280;64746;50.234;19.224;2022-10-31T11:00:26;98952.50;;;18.24;57.58
76050;BME280;64746;50.234;19.224;2022-10-31T11:02:54;98945.97;;;18.25;57.72
76050;BME280;64746;50.234;19.224;2022-10-31T11:08:11;98946.91;;;18.31;57.85
76050;BME280;64746;50.234;19.224;2022-10-31T11:10:59;98948.31;;;18.34;57.55
76050;BME280;64746;50.234;19.224;2022-10-31T11:13:28;98943.69;;;18.34;57.99
76050;BME280;64746;50.234;19.224;2022-10-31T11:16:03;98937.13;;;18.35;57.53
76050;BME280;64746;50.234;19.224;2022-10-31T11:18:34;98934.97;;;18.37;57.40
76050;BME280;64746;50.234;19.224;2022-10-31T11:21:05;98930.09;;;18.39;57.08
76050;BME280;64746;50.234;19.224;2022-10-31T11:23:32;98932.84;;;18.39;57.21
76050;BME280;64746;50.234;19.224;2022-10-31T11:26:02;98930.69;;;18.41;56.60
76050;BME280;64746;50.234;19.224;2022-10-31T11:28:31;98925.78;;;18.43;56.48
76050;BME280;64746;50.234;19.224;2022-10-31T11:31:21;98931.28;;;18.43;56.49
76050;BME280;64746;50.234;19.224;2022-10-31T11:33:58;98924.50;;;18.46;56.77
76050;BME280;64746;50.234;19.224;2022-10-31T11:36:31;98926.97;;;18.47;56.50
76050;BME280;64746;50.234;19.224;2022-10-31T11:39:02;98924.81;;;18.49;56.69
76050;BME280;64746;50.234;19.224;2022-10-31T11:41:33;98929.59;;;18.54;56.79
76050;BME280;64746;50.234;19.224;2022-10-31T11:44:11;98924.47;;;18.57;56.68
76050;BME280;64746;50.234;19.224;2022-10-31T11:46:51;98927.06;;;18.64;57.91
76050;BME280;64746;50.234;19.224;2022-10-31T11:49:41;98920.34;;;18.71;57.20
76050;BME280;64746;50.234;19.224;2022-10-31T11:52:18;98919.38;;;18.78;56.27
76050;BME280;64746;50.234;19.224;2022-10-31T11:54:52;98926.88;;;18.82;56.14
76050;BME280;64746;50.234;19.224;2022-10-31T11:59:56;98915.50;;;18.90;55.40
76050;BME280;64746;50.234;19.224;2022-10-31T12:02:24;98919.63;;;18.93;55.42
76050;BME280;64746;50.234;19.224;2022-10-31T12:07:39;98916.38;;;18.96;55.44
76050;BME280;64746;50.234;19.224;2022-10-31T12:10:13;98911.50;;;18.98;55.31
76050;BME280;64746;50.234;19.224;2022-10-31T12:15:22;98907.44;;;19.00;55.55
76050;BME280;64746;50.234;19.224;2022-10-31T13:34:59;98869.84;;;21.87;47.53
76050;BME280;64746;50.234;19.224;2022-10-31T13:37:41;98868.63;;;21.68;47.60
76050;BME280;64746;50.234;19.224;2022-10-31T13:43:11;98867.47;;;21.22;49.34
76050;BME280;64746;50.234;19.224;2022-10-31T13:45:51;98879.38;;;21.01;49.90
76050;BME280;64746;50.234;19.224;2022-10-31T13:48:36;98876.44;;;20.80;50.23
76050;BME280;64746;50.234;19.224;2022-10-31T13:51:09;98876.06;;;20.67;50.87
76050;BME280;64746;50.234;19.224;2022-10-31T13:56:20;98875.00;;;20.46;51.38
76050;BME280;64746;50.234;19.224;2022-10-31T13:59:16;98872.13;;;20.36;51.80
76050;BME280;64746;50.234;19.224;2022-10-31T14:01:52;98876.97;;;20.29;51.86
76050;BME280;64746;50.234;19.224;2022-10-31T14:09:38;98870.19;;;20.15;52.82
76050;BME280;64746;50.234;19.224;2022-10-31T14:12:09;98868.22;;;20.10;53.02
76050;BME280;64746;50.234;19.224;2022-10-31T14:14:48;98873.41;;;20.07;53.19
76050;BME280;64746;50.234;19.224;2022-10-31T14:17:20;98865.94;;;20.02;53.18
76050;BME280;64746;50.234;19.224;2022-10-31T14:20:00;98870.00;;;19.99;53.08
76050;BME280;64746;50.234;19.224;2022-10-31T14:22:32;98868.63;;;19.97;53.52
76050;BME280;64746;50.234;19.224;2022-10-31T14:25:28;98875.44;;;19.94;53.05
76050;BME280;64746;50.234;19.224;2022-10-31T14:27:57;98864.13;;;19.91;53.60
76050;BME280;64746;50.234;19.224;2022-10-31T14:30:26;98867.16;;;19.89;53.29
76050;BME280;64746;50.234;19.224;2022-10-31T14:33:13;98869.31;;;19.87;53.50
76050;BME280;64746;50.234;19.224;2022-10-31T15:19:34;98842.28;;;19.57;54.96
76050;BME280;64746;50.234;19.224;2022-10-31T15:22:03;98840.63;;;19.56;55.00
76050;BME280;64746;50.234;19.224;2022-10-31T15:24:34;98848.25;;;19.54;55.09
76050;BME280;64746;50.234;19.224;2022-10-31T15:27:02;98841.16;;;19.53;54.85
76050;BME280;64746;50.234;19.224;2022-10-31T15:29:31;98838.66;;;19.52;55.11
76050;BME280;64746;50.234;19.224;2022-10-31T15:32:22;98846.28;;;19.50;55.22
76050;BME280;64746;50.234;19.224;2022-10-31T15:34:50;98842.97;;;19.48;55.42
76050;BME280;64746;50.234;19.224;2022-10-31T15:37:20;98848.47;;;19.48;55.12
76050;BME280;64746;50.234;19.224;2022-10-31T15:39:48;98845.97;;;19.46;55.14
76050;BME280;64746;50.234;19.224;2022-10-31T15:42:22;98843.50;;;19.45;55.48
76050;BME280;64746;50.234;19.224;2022-10-31T15:45:00;98854.72;;;19.43;55.28
76050;BME280;64746;50.234;19.224;2022-10-31T15:47:30;98855.75;;;19.42;55.31
76050;BME280;64746;50.234;19.224;2022-10-31T15:49:59;98854.09;;;19.41;55.42
76050;BME280;64746;50.234;19.224;2022-10-31T15:52:40;98854.09;;;19.41;55.45
76050;BME280;64746;50.234;19.224;2022-10-31T15:55:24;98841.97;;;19.37;55.55
76050;BME280;64746;50.234;19.224;2022-10-31T15:57:58;98851.84;;;19.38;55.55
76050;BME280;64746;50.234;19.224;2022-10-31T16:00:35;98862.22;;;19.36;55.57
76050;BME280;64746;50.234;19.224;2022-10-31T16:05:38;98855.34;;;19.34;55.72
76050;BME280;64746;50.234;19.224;2022-10-31T16:08:26;98860.00;;;19.33;55.79
76050;BME280;64746;50.234;19.224;2022-10-31T16:13:42;98859.69;;;19.30;55.79
76050;BME280;64746;50.234;19.224;2022-10-31T16:16:19;98867.06;;;19.29;55.84
76050;BME280;64746;50.234;19.224;2022-10-31T16:19:05;98859.91;;;19.28;55.85
76050;BME280;64746;50.234;19.224;2022-10-31T16:21:39;98868.16;;;19.28;55.94
76050;BME280;64746;50.234;19.224;2022-10-31T16:24:45;98861.25;;;19.26;55.86
76050;BME280;64746;50.234;19.224;2022-10-31T16:27:25;98861.50;;;19.24;56.02
76050;BME280;64746;50.234;19.224;2022-10-31T16:29:58;98865.06;;;19.25;55.97
76050;BME280;64746;50.234;19.224;2022-10-31T16:37:53;98865.59;;;19.22;56.07
76050;BME280;64746;50.234;19.224;2022-10-31T16:40:21;98867.50;;;19.21;56.14
76050;BME280;64746;50.234;19.224;2022-10-31T16:42:48;98871.31;;;19.20;55.98
76050;BME280;64746;50.234;19.224;2022-10-31T16:45:20;98868.81;;;19.18;56.21
76050;BME280;64746;50.234;19.224;2022-10-31T16:47:48;98870.75;;;19.18;55.94
76050;BME280;64746;50.234;19.224;2022-10-31T16:50:25;98862.53;;;19.18;56.03
76050;BME280;64746;50.234;19.224;2022-10-31T16:52:52;98873.72;;;19.16;56.27
76050;BME280;64746;50.234;19.224;2022-10-31T16:55:47;98870.41;;;19.14;56.02
76050;BME280;64746;50.234;19.224;2022-10-31T16:58:22;98874.25;;;19.13;56.26